Aérodrome :
LOGIN :

S'inscrire | Disclaimer

   EN    FR    IT 

 










Légende :    VFR   VFR Marginal   IFR   IFR Intensif   IFR Très Intensif
Visi : 
Plafond : 
>= 8 km
>= 3000ft
5 à 8 km
1000 à 3000 ft
1500m à 5 km
500 à 1000 ft
800 à 1500m
200 à 500 ft
< 800m
< 200 ft
Symboles :   Orages  Brouillard  Fortes neiges  Fortes précipitations  Vent > 20 kt
SIGMETs :   Divers  Orages  Givrage  Turbulence  Onde Orograph.  Cendres Volcan.







- Altitude de l'aérodrome : 157 ft
- Code IATA : LIL
- Voir les cartes d'approche


LFQQ - Lille Lesquin

DERNIER METAR :
  • 171700Z AUTO 24013KT 9999 FEW027 SCT032 BKN110 22/15 Q1014 NOSIG

METARs EXPIRÉS :
  • 171630Z AUTO 25015KT 9999 SCT026 BKN035 BKN100 22/15 Q1014 NOSIG
  • 171600Z AUTO 23012KT 9999 SCT023 SCT110 OVC140 22/17 Q1014 NOSIG
  • 171530Z AUTO 24012KT 9999 FEW020/// BKN110/// OVC140/// ///TCU 21/17 Q1014 BECMG BKN020
  • 171500Z AUTO 23010KT 190V260 9999 FEW042/// BKN110/// OVC140/// ///CB 20/17 Q1014 BECMG BKN020
  • 171430Z AUTO 22010KT 9999 SCT015/// BKN030/// BKN039/// ///CB 20/18 Q1014 BECMG BKN020

TAF TAF LFQQ
Valide du 17 à 12h jusqu'au 18 à 18h UTC


171100Z 1712/1818 22012KT 9999 BKN020
TEMPO 1712/1715 4000 RA BKN010 BKN020TCU
TEMPO 1800/1808 2000 SHRA BKN004 BKN020CB
ATIS : +33 3 20 16 19 54
Pas de NOTAMs connus pour ce terrain.



MET'MAP, la Météo Aéronautique d'un coup d'oeil ! - Copyright ORBIFLY Décembre 2007 - Disclaimer

ORBIFLY MET'MAP TEAM :

Programmation & Développement : Alexandra Zaïnal
Conception & Développement : Baudouin d'Aumeries
Co-Programmation & Développement : Marc-Olivier Méhu
Soutien technique & logistique : Manuel Goepfert

Contact : metmap@orbifly.com




SOURCES & CREDITS :

   NOAA